Angoon, Alaska
Current Conditions -  °F | °C
As of 7:13 AM on Wednesday 26 Nov 2014 (Local Time) from PAGN Reporting Station
Overcast Overcast  
Wind Chill: 36°   Ceiling: 2200
Heat Index: 36°   Visibility: 10mi
Dew Point: 36°   Wind: 0mph
Humidity: 100%   Direction: NA
Pressure: 30.17"   Gusts: NA
Location:  57.5°N, 134.59°W
Report Text: PAGN 261613Z AUTO 00000KT 10SM SCT006 OVC022 02/02 A3017 RMK AO2 TSNO $
Loading
Personal Weather Stations






























Interactive Weather Map New forecast layout! Learn more

10-Day Weather Forecast

Advertisements
Track Severe Weather on mobile